German, Illinois
Current Conditions -  °F | °C
As of 7:35 PM on Tuesday 25 Nov 2014 (Local Time) from KOLY Reporting Station
Overcast Overcast  
Wind Chill: 32°   Ceiling: 2400
Heat Index: 32°   Visibility: 10mi
Dew Point: 27°   Wind: 0mph
Humidity: 80%   Direction: NA
Pressure: 30.23"   Gusts: NA
Location:  38.755°N, 87.9657°W
Report Text: KOLY 260135Z AUTO 00000KT 10SM OVC024 00/M03 A3023 RMK AO2
Loading
Personal Weather Stations






























Interactive Weather Map New forecast layout! Learn more

10-Day Weather Forecast

Advertisements
Track Severe Weather on mobile